sensor_id;sensor_type;location;lat;lon;timestamp;P1;P2;P0
43479;PMS5003;29067;35.492;-97.520;2023-03-13T00:01:12;5;5;
43479;PMS5003;29067;35.492;-97.520;2023-03-13T00:03:42;9;7;
43479;PMS5003;29067;35.492;-97.520;2023-03-13T00:06:10;6;6;
43479;PMS5003;29067;35.492;-97.520;2023-03-13T00:08:38;9;9;
43479;PMS5003;29067;35.492;-97.520;2023-03-13T00:11:07;6;6;
43479;PMS5003;29067;35.492;-97.520;2023-03-13T00:13:36;6;6;
43479;PMS5003;29067;35.492;-97.520;2023-03-13T00:16:05;9;7;
43479;PMS5003;29067;35.492;-97.520;2023-03-13T00:18:34;7;7;
43479;PMS5003;29067;35.492;-97.520;2023-03-13T00:21:03;6;6;
43479;PMS5003;29067;35.492;-97.520;2023-03-13T00:23:33;6;6;
43479;PMS5003;29067;35.492;-97.520;2023-03-13T00:26:04;7;7;
43479;PMS5003;29067;35.492;-97.520;2023-03-13T00:28:34;6;6;
43479;PMS5003;29067;35.492;-97.520;2023-03-13T00:31:04;6;6;
43479;PMS5003;29067;35.492;-97.520;2023-03-13T00:33:34;5;5;
43479;PMS5003;29067;35.492;-97.520;2023-03-13T00:36:04;5;5;
43479;PMS5003;29067;35.492;-97.520;2023-03-13T00:38:35;8;6;
43479;PMS5003;29067;35.492;-97.520;2023-03-13T00:41:04;9;9;
43479;PMS5003;29067;35.492;-97.520;2023-03-13T00:43:33;9;8;
43479;PMS5003;29067;35.492;-97.520;2023-03-13T00:46:02;6;6;
43479;PMS5003;29067;35.492;-97.520;2023-03-13T00:48:30;6;6;
43479;PMS5003;29067;35.492;-97.520;2023-03-13T00:50:58;9;6;
43479;PMS5003;29067;35.492;-97.520;2023-03-13T00:53:27;5;5;
43479;PMS5003;29067;35.492;-97.520;2023-03-13T00:55:56;8;6;
43479;PMS5003;29067;35.492;-97.520;2023-03-13T00:58:26;6;6;
43479;PMS5003;29067;35.492;-97.520;2023-03-13T01:01:04;6;6;
43479;PMS5003;29067;35.492;-97.520;2023-03-13T01:03:33;10;8;
43479;PMS5003;29067;35.492;-97.520;2023-03-13T01:06:03;8;8;
43479;PMS5003;29067;35.492;-97.520;2023-03-13T01:08:34;9;9;
43479;PMS5003;29067;35.492;-97.520;2023-03-13T01:11:03;9;9;
43479;PMS5003;29067;35.492;-97.520;2023-03-13T01:13:33;11;9;
43479;PMS5003;29067;35.492;-97.520;2023-03-13T01:16:02;8;8;
43479;PMS5003;29067;35.492;-97.520;2023-03-13T01:18:32;11;11;
43479;PMS5003;29067;35.492;-97.520;2023-03-13T01:21:01;11;11;
43479;PMS5003;29067;35.492;-97.520;2023-03-13T01:23:30;9;9;
43479;PMS5003;29067;35.492;-97.520;2023-03-13T01:25:58;10;10;
43479;PMS5003;29067;35.492;-97.520;2023-03-13T01:28:27;10;10;
43479;PMS5003;29067;35.492;-97.520;2023-03-13T01:30:55;10;9;
43479;PMS5003;29067;35.492;-97.520;2023-03-13T01:33:24;8;7;
43479;PMS5003;29067;35.492;-97.520;2023-03-13T01:35:59;14;10;
43479;PMS5003;29067;35.492;-97.520;2023-03-13T01:38:28;10;10;
43479;PMS5003;29067;35.492;-97.520;2023-03-13T01:40:56;9;9;
43479;PMS5003;29067;35.492;-97.520;2023-03-13T01:43:25;9;9;
43479;PMS5003;29067;35.492;-97.520;2023-03-13T01:45:57;25;25;
43479;PMS5003;29067;35.492;-97.520;2023-03-13T01:48:30;36;34;
43479;PMS5003;29067;35.492;-97.520;2023-03-13T01:51:04;29;29;
43479;PMS5003;29067;35.492;-97.520;2023-03-13T01:53:36;32;31;
43479;PMS5003;29067;35.492;-97.520;2023-03-13T01:56:12;24;24;
43479;PMS5003;29067;35.492;-97.520;2023-03-13T01:58:45;27;25;
43479;PMS5003;29067;35.492;-97.520;2023-03-13T02:01:15;30;29;
43479;PMS5003;29067;35.492;-97.520;2023-03-13T02:03:44;20;19;
43479;PMS5003;29067;35.492;-97.520;2023-03-13T02:06:14;18;16;
43479;PMS5003;29067;35.492;-97.520;2023-03-13T02:08:44;20;19;
43479;PMS5003;29067;35.492;-97.520;2023-03-13T02:11:21;33;32;
43479;PMS5003;29067;35.492;-97.520;2023-03-13T02:13:55;25;25;
43479;PMS5003;29067;35.492;-97.520;2023-03-13T02:16:25;26;24;
43479;PMS5003;29067;35.492;-97.520;2023-03-13T02:18:54;99;98;
43479;PMS5003;29067;35.492;-97.520;2023-03-13T02:21:26;92;87;
43479;PMS5003;29067;35.492;-97.520;2023-03-13T02:24:06;190;187;
43479;PMS5003;29067;35.492;-97.520;2023-03-13T02:26:41;39;36;
43479;PMS5003;29067;35.492;-97.520;2023-03-13T02:29:10;22;21;
43479;PMS5003;29067;35.492;-97.520;2023-03-13T02:31:38;27;23;
43479;PMS5003;29067;35.492;-97.520;2023-03-13T02:34:07;35;30;
43479;PMS5003;29067;35.492;-97.520;2023-03-13T02:36:36;18;15;
43479;PMS5003;29067;35.492;-97.520;2023-03-13T02:39:04;30;23;
43479;PMS5003;29067;35.492;-97.520;2023-03-13T02:41:33;22;15;
43479;PMS5003;29067;35.492;-97.520;2023-03-13T02:44:01;43;38;
43479;PMS5003;29067;35.492;-97.520;2023-03-13T02:46:30;33;27;
43479;PMS5003;29067;35.492;-97.520;2023-03-13T02:49:15;42;37;
43479;PMS5003;29067;35.492;-97.520;2023-03-13T02:51:47;20;16;
43479;PMS5003;29067;35.492;-97.520;2023-03-13T02:54:17;35;28;
43479;PMS5003;29067;35.492;-97.520;2023-03-13T02:56:50;30;26;
43479;PMS5003;29067;35.492;-97.520;2023-03-13T02:59:21;41;37;
43479;PMS5003;29067;35.492;-97.520;2023-03-13T03:01:48;21;16;
43479;PMS5003;29067;35.492;-97.520;2023-03-13T03:04:16;23;16;
43479;PMS5003;29067;35.492;-97.520;2023-03-13T03:06:45;37;35;
43479;PMS5003;29067;35.492;-97.520;2023-03-13T03:09:14;36;30;
43479;PMS5003;29067;35.492;-97.520;2023-03-13T03:11:42;35;29;
43479;PMS5003;29067;35.492;-97.520;2023-03-13T03:14:11;64;58;
43479;PMS5003;29067;35.492;-97.520;2023-03-13T03:16:39;44;38;
43479;PMS5003;29067;35.492;-97.520;2023-03-13T03:19:08;45;35;
43479;PMS5003;29067;35.492;-97.520;2023-03-13T03:21:36;64;54;
43479;PMS5003;29067;35.492;-97.520;2023-03-13T03:24:04;60;53;
43479;PMS5003;29067;35.492;-97.520;2023-03-13T03:26:33;53;45;
43479;PMS5003;29067;35.492;-97.520;2023-03-13T03:29:01;48;42;
43479;PMS5003;29067;35.492;-97.520;2023-03-13T03:31:30;54;50;
43479;PMS5003;29067;35.492;-97.520;2023-03-13T03:33:58;51;46;
43479;PMS5003;29067;35.492;-97.520;2023-03-13T03:36:27;71;62;
43479;PMS5003;29067;35.492;-97.520;2023-03-13T03:38:55;52;48;
43479;PMS5003;29067;35.492;-97.520;2023-03-13T03:41:23;50;45;
43479;PMS5003;29067;35.492;-97.520;2023-03-13T03:43:52;64;58;
43479;PMS5003;29067;35.492;-97.520;2023-03-13T03:46:20;91;87;
43479;PMS5003;29067;35.492;-97.520;2023-03-13T03:48:48;278;276;
43479;PMS5003;29067;35.492;-97.520;2023-03-13T03:51:17;263;263;
43479;PMS5003;29067;35.492;-97.520;2023-03-13T03:53:46;177;171;
43479;PMS5003;29067;35.492;-97.520;2023-03-13T03:56:14;223;219;
43479;PMS5003;29067;35.492;-97.520;2023-03-13T03:58:42;195;189;
43479;PMS5003;29067;35.492;-97.520;2023-03-13T04:01:09;43;37;
43479;PMS5003;29067;35.492;-97.520;2023-03-13T04:03:37;16;14;
43479;PMS5003;29067;35.492;-97.520;2023-03-13T04:06:06;11;9;
43479;PMS5003;29067;35.492;-97.520;2023-03-13T04:08:34;14;13;
43479;PMS5003;29067;35.492;-97.520;2023-03-13T04:11:02;15;12;
43479;PMS5003;29067;35.492;-97.520;2023-03-13T04:13:30;14;12;
43479;PMS5003;29067;35.492;-97.520;2023-03-13T04:15:58;14;13;
43479;PMS5003;29067;35.492;-97.520;2023-03-13T04:18:31;12;12;
43479;PMS5003;29067;35.492;-97.520;2023-03-13T04:21:00;14;13;
43479;PMS5003;29067;35.492;-97.520;2023-03-13T04:23:29;14;13;
43479;PMS5003;29067;35.492;-97.520;2023-03-13T04:25:57;15;15;
43479;PMS5003;29067;35.492;-97.520;2023-03-13T04:28:24;15;13;
43479;PMS5003;29067;35.492;-97.520;2023-03-13T04:30:53;15;15;
43479;PMS5003;29067;35.492;-97.520;2023-03-13T04:33:22;16;13;
43479;PMS5003;29067;35.492;-97.520;2023-03-13T04:35:50;15;14;
43479;PMS5003;29067;35.492;-97.520;2023-03-13T04:38:18;13;12;
43479;PMS5003;29067;35.492;-97.520;2023-03-13T04:40:47;14;14;
43479;PMS5003;29067;35.492;-97.520;2023-03-13T04:43:15;12;12;
43479;PMS5003;29067;35.492;-97.520;2023-03-13T04:45:42;15;15;
43479;PMS5003;29067;35.492;-97.520;2023-03-13T04:48:10;15;15;
43479;PMS5003;29067;35.492;-97.520;2023-03-13T04:50:38;16;14;
43479;PMS5003;29067;35.492;-97.520;2023-03-13T04:53:06;15;15;
43479;PMS5003;29067;35.492;-97.520;2023-03-13T04:55:34;10;10;
43479;PMS5003;29067;35.492;-97.520;2023-03-13T04:58:02;12;12;
43479;PMS5003;29067;35.492;-97.520;2023-03-13T05:00:30;14;14;
43479;PMS5003;29067;35.492;-97.520;2023-03-13T05:02:58;12;12;
43479;PMS5003;29067;35.492;-97.520;2023-03-13T05:05:26;15;14;
43479;PMS5003;29067;35.492;-97.520;2023-03-13T05:07:53;15;12;
43479;PMS5003;29067;35.492;-97.520;2023-03-13T05:10:21;16;15;
43479;PMS5003;29067;35.492;-97.520;2023-03-13T05:12:49;13;12;
43479;PMS5003;29067;35.492;-97.520;2023-03-13T05:15:17;15;14;
43479;PMS5003;29067;35.492;-97.520;2023-03-13T05:17:45;13;12;
43479;PMS5003;29067;35.492;-97.520;2023-03-13T05:20:13;13;12;
43479;PMS5003;29067;35.492;-97.520;2023-03-13T05:22:41;12;12;
43479;PMS5003;29067;35.492;-97.520;2023-03-13T05:25:09;16;12;
43479;PMS5003;29067;35.492;-97.520;2023-03-13T05:27:36;12;10;
43479;PMS5003;29067;35.492;-97.520;2023-03-13T05:30:05;12;10;
43479;PMS5003;29067;35.492;-97.520;2023-03-13T05:32:33;10;10;
43479;PMS5003;29067;35.492;-97.520;2023-03-13T05:35:02;12;12;
43479;PMS5003;29067;35.492;-97.520;2023-03-13T05:37:31;14;13;
43479;PMS5003;29067;35.492;-97.520;2023-03-13T05:39:59;14;13;
43479;PMS5003;29067;35.492;-97.520;2023-03-13T05:42:27;10;10;
43479;PMS5003;29067;35.492;-97.520;2023-03-13T05:44:55;12;10;
43479;PMS5003;29067;35.492;-97.520;2023-03-13T05:47:23;14;13;
43479;PMS5003;29067;35.492;-97.520;2023-03-13T05:49:51;11;11;
43479;PMS5003;29067;35.492;-97.520;2023-03-13T05:52:19;14;13;
43479;PMS5003;29067;35.492;-97.520;2023-03-13T05:54:47;9;8;
43479;PMS5003;29067;35.492;-97.520;2023-03-13T05:57:15;12;12;
43479;PMS5003;29067;35.492;-97.520;2023-03-13T05:59:43;14;11;
43479;PMS5003;29067;35.492;-97.520;2023-03-13T06:02:11;12;8;
43479;PMS5003;29067;35.492;-97.520;2023-03-13T06:04:39;12;11;
43479;PMS5003;29067;35.492;-97.520;2023-03-13T06:07:07;11;9;
43479;PMS5003;29067;35.492;-97.520;2023-03-13T06:09:35;7;7;
43479;PMS5003;29067;35.492;-97.520;2023-03-13T06:12:03;12;9;
43479;PMS5003;29067;35.492;-97.520;2023-03-13T06:14:31;9;9;
43479;PMS5003;29067;35.492;-97.520;2023-03-13T06:16:59;8;8;
43479;PMS5003;29067;35.492;-97.520;2023-03-13T06:19:27;7;7;
43479;PMS5003;29067;35.492;-97.520;2023-03-13T06:21:55;7;7;
43479;PMS5003;29067;35.492;-97.520;2023-03-13T06:24:23;8;8;
43479;PMS5003;29067;35.492;-97.520;2023-03-13T06:26:51;11;9;
43479;PMS5003;29067;35.492;-97.520;2023-03-13T06:29:19;12;12;
43479;PMS5003;29067;35.492;-97.520;2023-03-13T06:31:47;12;11;
43479;PMS5003;29067;35.492;-97.520;2023-03-13T06:34:15;8;8;
43479;PMS5003;29067;35.492;-97.520;2023-03-13T06:36:43;8;8;
43479;PMS5003;29067;35.492;-97.520;2023-03-13T06:39:11;11;11;
43479;PMS5003;29067;35.492;-97.520;2023-03-13T06:41:39;9;9;
43479;PMS5003;29067;35.492;-97.520;2023-03-13T06:44:07;11;9;
43479;PMS5003;29067;35.492;-97.520;2023-03-13T06:46:35;11;9;
43479;PMS5003;29067;35.492;-97.520;2023-03-13T06:49:03;12;11;
43479;PMS5003;29067;35.492;-97.520;2023-03-13T06:51:31;8;7;
43479;PMS5003;29067;35.492;-97.520;2023-03-13T06:54:00;7;6;
43479;PMS5003;29067;35.492;-97.520;2023-03-13T06:56:28;7;7;
43479;PMS5003;29067;35.492;-97.520;2023-03-13T06:58:56;5;5;
43479;PMS5003;29067;35.492;-97.520;2023-03-13T07:01:24;6;6;
43479;PMS5003;29067;35.492;-97.520;2023-03-13T07:03:52;7;6;
43479;PMS5003;29067;35.492;-97.520;2023-03-13T07:06:21;7;6;
43479;PMS5003;29067;35.492;-97.520;2023-03-13T07:08:49;5;5;
43479;PMS5003;29067;35.492;-97.520;2023-03-13T07:11:18;6;6;
43479;PMS5003;29067;35.492;-97.520;2023-03-13T07:13:46;5;5;
43479;PMS5003;29067;35.492;-97.520;2023-03-13T07:16:14;7;6;
43479;PMS5003;29067;35.492;-97.520;2023-03-13T07:18:42;5;5;
43479;PMS5003;29067;35.492;-97.520;2023-03-13T07:21:10;6;5;
43479;PMS5003;29067;35.492;-97.520;2023-03-13T07:23:38;7;6;
43479;PMS5003;29067;35.492;-97.520;2023-03-13T07:26:09;8;5;
43479;PMS5003;29067;35.492;-97.520;2023-03-13T07:28:38;5;5;
43479;PMS5003;29067;35.492;-97.520;2023-03-13T07:31:09;7;6;
43479;PMS5003;29067;35.492;-97.520;2023-03-13T07:33:40;5;5;
43479;PMS5003;29067;35.492;-97.520;2023-03-13T07:36:08;3;3;
43479;PMS5003;29067;35.492;-97.520;2023-03-13T07:38:38;6;6;
43479;PMS5003;29067;35.492;-97.520;2023-03-13T07:41:06;6;6;
43479;PMS5003;29067;35.492;-97.520;2023-03-13T07:43:36;5;3;
43479;PMS5003;29067;35.492;-97.520;2023-03-13T07:46:05;6;6;
43479;PMS5003;29067;35.492;-97.520;2023-03-13T07:48:35;5;5;
43479;PMS5003;29067;35.492;-97.520;2023-03-13T07:51:05;3;3;
43479;PMS5003;29067;35.492;-97.520;2023-03-13T07:53:36;5;5;
43479;PMS5003;29067;35.492;-97.520;2023-03-13T07:56:04;5;5;
43479;PMS5003;29067;35.492;-97.520;2023-03-13T07:58:34;3;3;
43479;PMS5003;29067;35.492;-97.520;2023-03-13T08:01:07;3;3;
43479;PMS5003;29067;35.492;-97.520;2023-03-13T08:03:36;10;7;
43479;PMS5003;29067;35.492;-97.520;2023-03-13T08:06:05;6;6;
43479;PMS5003;29067;35.492;-97.520;2023-03-13T08:08:35;3;3;
43479;PMS5003;29067;35.492;-97.520;2023-03-13T08:11:04;5;5;
43479;PMS5003;29067;35.492;-97.520;2023-03-13T08:13:33;6;6;
43479;PMS5003;29067;35.492;-97.520;2023-03-13T08:16:03;6;6;
43479;PMS5003;29067;35.492;-97.520;2023-03-13T08:18:32;5;5;
43479;PMS5003;29067;35.492;-97.520;2023-03-13T08:21:02;6;5;
43479;PMS5003;29067;35.492;-97.520;2023-03-13T08:23:32;6;5;
43479;PMS5003;29067;35.492;-97.520;2023-03-13T08:26:01;7;6;
43479;PMS5003;29067;35.492;-97.520;2023-03-13T08:28:31;5;5;
43479;PMS5003;29067;35.492;-97.520;2023-03-13T08:31:05;7;6;
43479;PMS5003;29067;35.492;-97.520;2023-03-13T08:33:34;6;6;
43479;PMS5003;29067;35.492;-97.520;2023-03-13T08:36:10;5;3;
43479;PMS5003;29067;35.492;-97.520;2023-03-13T08:38:42;3;3;
43479;PMS5003;29067;35.492;-97.520;2023-03-13T08:41:11;9;7;
43479;PMS5003;29067;35.492;-97.520;2023-03-13T08:43:41;7;5;
43479;PMS5003;29067;35.492;-97.520;2023-03-13T08:46:09;5;5;
43479;PMS5003;29067;35.492;-97.520;2023-03-13T08:48:37;6;6;
43479;PMS5003;29067;35.492;-97.520;2023-03-13T08:51:06;6;6;
43479;PMS5003;29067;35.492;-97.520;2023-03-13T08:53:35;3;3;
43479;PMS5003;29067;35.492;-97.520;2023-03-13T08:56:05;3;2;
43479;PMS5003;29067;35.492;-97.520;2023-03-13T08:58:35;3;3;
43479;PMS5003;29067;35.492;-97.520;2023-03-13T09:01:03;6;6;
43479;PMS5003;29067;35.492;-97.520;2023-03-13T09:03:33;5;3;
43479;PMS5003;29067;35.492;-97.520;2023-03-13T09:06:02;5;3;
43479;PMS5003;29067;35.492;-97.520;2023-03-13T09:08:31;3;3;
43479;PMS5003;29067;35.492;-97.520;2023-03-13T09:11:00;5;5;
43479;PMS5003;29067;35.492;-97.520;2023-03-13T09:13:31;3;3;
43479;PMS5003;29067;35.492;-97.520;2023-03-13T09:16:01;3;3;
43479;PMS5003;29067;35.492;-97.520;2023-03-13T09:18:31;5;3;
43479;PMS5003;29067;35.492;-97.520;2023-03-13T09:21:00;5;5;
43479;PMS5003;29067;35.492;-97.520;2023-03-13T09:23:29;3;3;
43479;PMS5003;29067;35.492;-97.520;2023-03-13T09:25:57;5;5;
43479;PMS5003;29067;35.492;-97.520;2023-03-13T09:28:25;3;3;
43479;PMS5003;29067;35.492;-97.520;2023-03-13T09:30:53;6;5;
43479;PMS5003;29067;35.492;-97.520;2023-03-13T09:33:21;5;5;
43479;PMS5003;29067;35.492;-97.520;2023-03-13T09:35:49;2;2;
43479;PMS5003;29067;35.492;-97.520;2023-03-13T09:38:18;5;5;
43479;PMS5003;29067;35.492;-97.520;2023-03-13T09:40:47;5;5;
43479;PMS5003;29067;35.492;-97.520;2023-03-13T09:43:20;6;6;
43479;PMS5003;29067;35.492;-97.520;2023-03-13T09:45:57;5;5;
43479;PMS5003;29067;35.492;-97.520;2023-03-13T09:48:28;2;2;
43479;PMS5003;29067;35.492;-97.520;2023-03-13T09:51:00;5;5;
43479;PMS5003;29067;35.492;-97.520;2023-03-13T09:53:35;5;5;
43479;PMS5003;29067;35.492;-97.520;2023-03-13T09:56:11;3;3;
43479;PMS5003;29067;35.492;-97.520;2023-03-13T09:58:44;6;5;
43479;PMS5003;29067;35.492;-97.520;2023-03-13T10:01:20;5;3;
43479;PMS5003;29067;35.492;-97.520;2023-03-13T10:03:56;6;5;
43479;PMS5003;29067;35.492;-97.520;2023-03-13T10:06:32;5;5;
43479;PMS5003;29067;35.492;-97.520;2023-03-13T10:09:07;3;3;
43479;PMS5003;29067;35.492;-97.520;2023-03-13T10:11:46;5;5;
43479;PMS5003;29067;35.492;-97.520;2023-03-13T10:14:19;7;5;
43479;PMS5003;29067;35.492;-97.520;2023-03-13T10:16:58;5;3;
43479;PMS5003;29067;35.492;-97.520;2023-03-13T10:19:34;3;3;
43479;PMS5003;29067;35.492;-97.520;2023-03-13T10:22:09;3;3;
43479;PMS5003;29067;35.492;-97.520;2023-03-13T10:24:43;5;3;
43479;PMS5003;29067;35.492;-97.520;2023-03-13T10:27:16;6;6;
43479;PMS5003;29067;35.492;-97.520;2023-03-13T10:29:44;5;3;
43479;PMS5003;29067;35.492;-97.520;2023-03-13T10:32:13;5;5;
43479;PMS5003;29067;35.492;-97.520;2023-03-13T10:34:46;5;3;
43479;PMS5003;29067;35.492;-97.520;2023-03-13T10:37:20;5;5;
43479;PMS5003;29067;35.492;-97.520;2023-03-13T10:39:50;3;3;
43479;PMS5003;29067;35.492;-97.520;2023-03-13T10:42:20;5;5;
43479;PMS5003;29067;35.492;-97.520;2023-03-13T10:44:58;3;3;
43479;PMS5003;29067;35.492;-97.520;2023-03-13T10:47:27;5;5;
43479;PMS5003;29067;35.492;-97.520;2023-03-13T10:49:59;3;3;
43479;PMS5003;29067;35.492;-97.520;2023-03-13T10:52:31;3;3;
43479;PMS5003;29067;35.492;-97.520;2023-03-13T10:55:03;6;5;
43479;PMS5003;29067;35.492;-97.520;2023-03-13T10:57:33;3;3;
43479;PMS5003;29067;35.492;-97.520;2023-03-13T11:00:04;5;3;
43479;PMS5003;29067;35.492;-97.520;2023-03-13T11:02:51;5;3;
43479;PMS5003;29067;35.492;-97.520;2023-03-13T11:05:36;3;3;
43479;PMS5003;29067;35.492;-97.520;2023-03-13T11:08:11;3;3;
43479;PMS5003;29067;35.492;-97.520;2023-03-13T11:10:51;5;5;
43479;PMS5003;29067;35.492;-97.520;2023-03-13T11:13:38;5;3;
43479;PMS5003;29067;35.492;-97.520;2023-03-13T11:16:12;2;2;
43479;PMS5003;29067;35.492;-97.520;2023-03-13T11:18:49;5;5;
43479;PMS5003;29067;35.492;-97.520;2023-03-13T11:21:35;3;3;
43479;PMS5003;29067;35.492;-97.520;2023-03-13T11:24:12;6;5;
43479;PMS5003;29067;35.492;-97.520;2023-03-13T11:26:49;6;6;
43479;PMS5003;29067;35.492;-97.520;2023-03-13T11:29:25;3;3;
43479;PMS5003;29067;35.492;-97.520;2023-03-13T11:32:03;5;5;
43479;PMS5003;29067;35.492;-97.520;2023-03-13T11:34:39;2;2;
43479;PMS5003;29067;35.492;-97.520;2023-03-13T11:37:14;7;5;
43479;PMS5003;29067;35.492;-97.520;2023-03-13T11:39:49;5;3;
43479;PMS5003;29067;35.492;-97.520;2023-03-13T11:42:35;5;5;
43479;PMS5003;29067;35.492;-97.520;2023-03-13T11:45:15;7;3;
43479;PMS5003;29067;35.492;-97.520;2023-03-13T11:48:01;5;5;
43479;PMS5003;29067;35.492;-97.520;2023-03-13T11:50:36;5;5;
43479;PMS5003;29067;35.492;-97.520;2023-03-13T11:53:16;3;3;
43479;PMS5003;29067;35.492;-97.520;2023-03-13T11:55:58;3;3;
43479;PMS5003;29067;35.492;-97.520;2023-03-13T11:58:42;3;3;
43479;PMS5003;29067;35.492;-97.520;2023-03-13T12:03:01;2;2;
43479;PMS5003;29067;35.492;-97.520;2023-03-13T12:05:37;5;4;
43479;PMS5003;29067;35.492;-97.520;2023-03-13T12:08:10;4;4;
43479;PMS5003;29067;35.492;-97.520;2023-03-13T12:10:45;2;2;
43479;PMS5003;29067;35.492;-97.520;2023-03-13T12:13:18;4;4;
43479;PMS5003;29067;35.492;-97.520;2023-03-13T12:15:53;4;4;
43479;PMS5003;29067;35.492;-97.520;2023-03-13T12:18:28;4;4;
43479;PMS5003;29067;35.492;-97.520;2023-03-13T12:21:00;2;2;
43479;PMS5003;29067;35.492;-97.520;2023-03-13T12:23:36;1;1;
43479;PMS5003;29067;35.492;-97.520;2023-03-13T12:26:13;5;4;
43479;PMS5003;29067;35.492;-97.520;2023-03-13T12:28:44;4;4;
43479;PMS5003;29067;35.492;-97.520;2023-03-13T12:31:24;4;4;
43479;PMS5003;29067;35.492;-97.520;2023-03-13T12:33:56;2;2;
43479;PMS5003;29067;35.492;-97.520;2023-03-13T12:36:37;2;2;
43479;PMS5003;29067;35.492;-97.520;2023-03-13T12:39:13;4;4;
43479;PMS5003;29067;35.492;-97.520;2023-03-13T12:41:53;4;2;
43479;PMS5003;29067;35.492;-97.520;2023-03-13T12:44:35;6;6;
43479;PMS5003;29067;35.492;-97.520;2023-03-13T12:47:07;4;4;
43479;PMS5003;29067;35.492;-97.520;2023-03-13T12:49:46;4;2;
43479;PMS5003;29067;35.492;-97.520;2023-03-13T12:52:40;2;2;
43479;PMS5003;29067;35.492;-97.520;2023-03-13T12:55:23;2;2;
43479;PMS5003;29067;35.492;-97.520;2023-03-13T12:58:09;5;5;
43479;PMS5003;29067;35.492;-97.520;2023-03-13T13:00:43;2;2;
43479;PMS5003;29067;35.492;-97.520;2023-03-13T13:03:18;5;4;
43479;PMS5003;29067;35.492;-97.520;2023-03-13T13:05:59;4;4;
43479;PMS5003;29067;35.492;-97.520;2023-03-13T13:08:35;2;2;
43479;PMS5003;29067;35.492;-97.520;2023-03-13T13:11:46;4;4;
43479;PMS5003;29067;35.492;-97.520;2023-03-13T13:15:20;4;4;
43479;PMS5003;29067;35.492;-97.520;2023-03-13T13:17:54;5;4;
43479;PMS5003;29067;35.492;-97.520;2023-03-13T13:20:37;4;4;
43479;PMS5003;29067;35.492;-97.520;2023-03-13T13:23:41;4;4;
43479;PMS5003;29067;35.492;-97.520;2023-03-13T13:26:44;2;2;
43479;PMS5003;29067;35.492;-97.520;2023-03-13T13:29:52;2;2;
43479;PMS5003;29067;35.492;-97.520;2023-03-13T13:32:54;4;4;
43479;PMS5003;29067;35.492;-97.520;2023-03-13T13:35:25;4;4;
43479;PMS5003;29067;35.492;-97.520;2023-03-13T13:38:28;2;2;
43479;PMS5003;29067;35.492;-97.520;2023-03-13T13:40:59;4;2;
43479;PMS5003;29067;35.492;-97.520;2023-03-13T13:43:29;4;2;
43479;PMS5003;29067;35.492;-97.520;2023-03-13T13:46:00;2;2;
43479;PMS5003;29067;35.492;-97.520;2023-03-13T13:48:32;6;5;
43479;PMS5003;29067;35.492;-97.520;2023-03-13T13:51:19;6;6;
43479;PMS5003;29067;35.492;-97.520;2023-03-13T13:53:49;12;11;
43479;PMS5003;29067;35.492;-97.520;2023-03-13T13:56:38;12;12;
43479;PMS5003;29067;35.492;-97.520;2023-03-13T13:59:27;8;6;
43479;PMS5003;29067;35.492;-97.520;2023-03-13T14:02:12;10;10;
43479;PMS5003;29067;35.492;-97.520;2023-03-13T14:04:46;9;9;
43479;PMS5003;29067;35.492;-97.520;2023-03-13T14:07:23;25;25;
43479;PMS5003;29067;35.492;-97.520;2023-03-13T14:10:05;5;5;
43479;PMS5003;29067;35.492;-97.520;2023-03-13T14:12:45;4;4;
43479;PMS5003;29067;35.492;-97.520;2023-03-13T14:15:17;6;6;
43479;PMS5003;29067;35.492;-97.520;2023-03-13T14:17:47;6;5;
43479;PMS5003;29067;35.492;-97.520;2023-03-13T14:20:19;9;8;
43479;PMS5003;29067;35.492;-97.520;2023-03-13T14:22:51;6;6;
43479;PMS5003;29067;35.492;-97.520;2023-03-13T14:25:20;6;6;
43479;PMS5003;29067;35.492;-97.520;2023-03-13T14:27:50;10;6;
43479;PMS5003;29067;35.492;-97.520;2023-03-13T14:30:20;4;4;
43479;PMS5003;29067;35.492;-97.520;2023-03-13T14:32:50;2;2;
43479;PMS5003;29067;35.492;-97.520;2023-03-13T14:35:18;2;2;
43479;PMS5003;29067;35.492;-97.520;2023-03-13T14:37:48;6;6;
43479;PMS5003;29067;35.492;-97.520;2023-03-13T14:40:19;8;8;
43479;PMS5003;29067;35.492;-97.520;2023-03-13T14:42:51;9;8;
43479;PMS5003;29067;35.492;-97.520;2023-03-13T14:45:23;6;6;
43479;PMS5003;29067;35.492;-97.520;2023-03-13T14:47:54;5;5;
43479;PMS5003;29067;35.492;-97.520;2023-03-13T14:50:29;5;4;
43479;PMS5003;29067;35.492;-97.520;2023-03-13T14:52:58;9;5;
43479;PMS5003;29067;35.492;-97.520;2023-03-13T14:55:31;5;5;
43479;PMS5003;29067;35.492;-97.520;2023-03-13T14:58:01;5;4;
43479;PMS5003;29067;35.492;-97.520;2023-03-13T15:00:32;1;1;
43479;PMS5003;29067;35.492;-97.520;2023-03-13T15:03:35;2;1;
43479;PMS5003;29067;35.492;-97.520;2023-03-13T15:06:14;2;2;
43479;PMS5003;29067;35.492;-97.520;2023-03-13T15:08:45;3;3;
43479;PMS5003;29067;35.492;-97.520;2023-03-13T15:11:17;2;2;
43479;PMS5003;29067;35.492;-97.520;2023-03-13T15:13:47;2;2;
43479;PMS5003;29067;35.492;-97.520;2023-03-13T15:16:16;1;1;
43479;PMS5003;29067;35.492;-97.520;2023-03-13T15:18:46;3;2;
43479;PMS5003;29067;35.492;-97.520;2023-03-13T15:21:30;3;3;
43479;PMS5003;29067;35.492;-97.520;2023-03-13T15:24:00;3;2;
43479;PMS5003;29067;35.492;-97.520;2023-03-13T15:26:36;2;2;
43479;PMS5003;29067;35.492;-97.520;2023-03-13T15:29:04;2;2;
43479;PMS5003;29067;35.492;-97.520;2023-03-13T15:31:32;3;3;
43479;PMS5003;29067;35.492;-97.520;2023-03-13T15:34:00;7;7;
43479;PMS5003;29067;35.492;-97.520;2023-03-13T15:36:30;11;11;
43479;PMS5003;29067;35.492;-97.520;2023-03-13T15:38:58;11;11;
43479;PMS5003;29067;35.492;-97.520;2023-03-13T15:41:27;19;18;
43479;PMS5003;29067;35.492;-97.520;2023-03-13T15:43:55;9;9;
43479;PMS5003;29067;35.492;-97.520;2023-03-13T15:46:28;5;5;
43479;PMS5003;29067;35.492;-97.520;2023-03-13T15:48:57;7;6;
43479;PMS5003;29067;35.492;-97.520;2023-03-13T15:51:25;6;6;
43479;PMS5003;29067;35.492;-97.520;2023-03-13T15:53:53;6;5;
43479;PMS5003;29067;35.492;-97.520;2023-03-13T15:56:22;2;2;
43479;PMS5003;29067;35.492;-97.520;2023-03-13T15:58:50;3;3;
43479;PMS5003;29067;35.492;-97.520;2023-03-13T16:01:18;5;3;
43479;PMS5003;29067;35.492;-97.520;2023-03-13T16:03:46;3;3;
43479;PMS5003;29067;35.492;-97.520;2023-03-13T16:06:15;5;3;
43479;PMS5003;29067;35.492;-97.520;2023-03-13T16:08:44;5;3;
43479;PMS5003;29067;35.492;-97.520;2023-03-13T16:11:12;6;3;
43479;PMS5003;29067;35.492;-97.520;2023-03-13T16:13:42;5;3;
43479;PMS5003;29067;35.492;-97.520;2023-03-13T16:16:15;5;3;
43479;PMS5003;29067;35.492;-97.520;2023-03-13T16:18:46;6;6;
43479;PMS5003;29067;35.492;-97.520;2023-03-13T16:21:17;5;5;
43479;PMS5003;29067;35.492;-97.520;2023-03-13T16:23:46;3;3;
43479;PMS5003;29067;35.492;-97.520;2023-03-13T16:26:16;5;3;
43479;PMS5003;29067;35.492;-97.520;2023-03-13T16:28:47;3;2;
43479;PMS5003;29067;35.492;-97.520;2023-03-13T16:31:17;3;3;
43479;PMS5003;29067;35.492;-97.520;2023-03-13T16:33:52;2;2;
43479;PMS5003;29067;35.492;-97.520;2023-03-13T16:36:21;3;2;
43479;PMS5003;29067;35.492;-97.520;2023-03-13T16:38:51;2;2;